createdAt,value
2022-12-18T00:02:58.551Z,63
2022-12-18T00:23:14.478Z,63
2022-12-18T00:42:53.059Z,63
2022-12-18T01:02:54.220Z,62
2022-12-18T01:22:52.242Z,60
2022-12-18T01:42:52.340Z,61
2022-12-18T02:02:54.175Z,62
2022-12-18T02:23:37.993Z,61
2022-12-18T02:42:52.697Z,62
2022-12-18T03:02:53.848Z,63
2022-12-18T03:23:15.931Z,63
2022-12-18T03:43:16.133Z,62
2022-12-18T04:03:15.881Z,63
2022-12-18T04:22:52.588Z,63
2022-12-18T04:42:53.985Z,63
2022-12-18T05:03:14.417Z,63
2022-12-18T05:22:52.893Z,62
2022-12-18T05:42:52.487Z,61
2022-12-18T06:03:13.696Z,62
2022-12-18T06:22:06.528Z,62
2022-12-18T06:43:15.264Z,62
2022-12-18T07:03:16.069Z,62
2022-12-18T07:22:56.537Z,64
2022-12-18T07:42:52.538Z,63
2022-12-18T08:02:53.365Z,64
2022-12-18T08:23:57.886Z,62
2022-12-18T08:42:52.958Z,61
2022-12-18T09:03:15.143Z,61
2022-12-18T09:23:14.676Z,61
2022-12-18T09:42:52.292Z,60
2022-12-18T10:02:53.850Z,60
2022-12-18T10:22:53.347Z,61
2022-12-18T10:42:53.090Z,60
2022-12-18T11:02:53.948Z,57
2022-12-18T11:22:52.744Z,58
2022-12-18T11:43:19.570Z,60
2022-12-18T12:02:53.036Z,59
2022-12-18T12:22:53.200Z,58
2022-12-18T12:43:49.747Z,59
2022-12-18T13:02:53.557Z,61
2022-12-18T13:22:54.027Z,60
2022-12-18T13:42:52.662Z,60
2022-12-18T14:03:22.158Z,59
2022-12-18T14:22:53.707Z,59
2022-12-18T14:43:36.302Z,58
2022-12-18T15:02:53.974Z,59
2022-12-18T15:22:53.960Z,61
2022-12-18T15:42:53.121Z,60
2022-12-18T16:02:54.532Z,60
2022-12-18T16:23:15.268Z,61
2022-12-18T16:43:14.769Z,61
2022-12-18T17:03:37.501Z,62
2022-12-18T17:23:38.127Z,61
2022-12-18T17:43:23.772Z,61
2022-12-18T18:03:15.698Z,60
2022-12-18T18:22:53.495Z,61
2022-12-18T18:42:53.688Z,60
2022-12-18T19:03:15.186Z,61
2022-12-18T19:22:56.157Z,63
2022-12-18T19:43:14.869Z,62
2022-12-18T20:03:05.627Z,62
2022-12-18T20:22:53.337Z,64
2022-12-18T20:43:37.119Z,63
2022-12-18T21:03:37.821Z,61
2022-12-18T21:23:17.158Z,62
2022-12-18T21:43:18.086Z,61
2022-12-18T22:03:19.317Z,62
2022-12-18T22:23:13.671Z,61
2022-12-18T22:42:52.844Z,63
2022-12-18T23:12:16.643Z,62
2022-12-18T23:29:31.541Z,62
2022-12-18T23:47:16.134Z,62
